Time;durP1;ratioP1;P1;durP2;ratioP2;P2;SDS_P1;SDS_P2;PMS_P1;PMS_P2;Temp;Humidity;BMP_temperature;BMP_pressure;BME280_temperature;BME280_humidity;BME280_pressure;Samples;Min_cycle;Max_cycle;Signal;HPM_P1;HPM_P2
2021/07/25 00:01:19;;;;;;;32.65;29.02;;;;;;;;;;3612312;39;20853;-82
2021/07/25 00:03:47;;;;;;;36.10;29.23;;;;;;;;;;3603559;39;20234;-82
2021/07/25 00:06:17;;;;;;;34.63;31.00;;;;;;;;;;3603412;39;20299;-81
2021/07/25 00:08:45;;;;;;;37.60;33.55;;;;;;;;;;3612170;39;20240;-84
2021/07/25 00:11:15;;;;;;;34.08;30.67;;;;;;;;;;3612194;39;20227;-82
2021/07/25 00:13:47;;;;;;;33.38;29.75;;;;;;;;;;3612151;39;20241;-82
2021/07/25 00:16:14;;;;;;;32.65;29.33;;;;;;;;;;3598299;40;20242;-80
2021/07/25 00:18:42;;;;;;;32.65;28.90;;;;;;;;;;3593295;40;20274;-84
2021/07/25 00:21:09;;;;;;;31.75;28.52;;;;;;;;;;3602058;40;20238;-83
2021/07/25 00:23:37;;;;;;;33.22;28.40;;;;;;;;;;3593122;40;20284;-84
2021/07/25 00:26:06;;;;;;;32.40;28.30;;;;;;;;;;3602013;40;20227;-89
2021/07/25 00:28:35;;;;;;;33.78;30.25;;;;;;;;;;3601785;40;20226;-81
2021/07/25 00:31:03;;;;;;;38.75;29.40;;;;;;;;;;3601755;40;20258;-81
2021/07/25 00:33:31;;;;;;;31.23;26.98;;;;;;;;;;3592867;40;20211;-81
2021/07/25 00:35:59;;;;;;;33.45;29.23;;;;;;;;;;3584815;40;20235;-81
2021/07/25 00:38:26;;;;;;;31.35;28.05;;;;;;;;;;3601721;40;20861;-82
2021/07/25 00:40:56;;;;;;;37.72;31.25;;;;;;;;;;3601648;40;20768;-82
2021/07/25 00:43:27;;;;;;;36.67;31.23;;;;;;;;;;3584878;40;20223;-83
2021/07/25 00:45:56;;;;;;;32.60;29.42;;;;;;;;;;3601693;40;20211;-83
2021/07/25 00:48:24;;;;;;;34.65;28.58;;;;;;;;;;3601538;40;20231;-85
2021/07/25 00:50:52;;;;;;;31.15;27.48;;;;;;;;;;3601710;40;20868;-87
2021/07/25 00:53:19;;;;;;;34.33;28.85;;;;;;;;;;3602747;40;20280;-82
2021/07/25 00:55:47;;;;;;;31.50;28.38;;;;;;;;;;3594624;40;20218;-83
2021/07/25 00:58:14;;;;;;;39.55;29.42;;;;;;;;;;3603255;40;20263;-82
2021/07/25 01:00:44;;;;;;;33.10;29.55;;;;;;;;;;3603354;40;20285;-82
2021/07/25 01:03:17;;;;;;;34.70;31.13;;;;;;;;;;3603280;40;20242;-83
2021/07/25 01:05:46;;;;;;;31.30;27.88;;;;;;;;;;3594622;40;20235;-82
2021/07/25 01:08:25;;;;;;;44.75;30.52;;;;;;;;;;3603125;40;20238;-81
2021/07/25 01:10:54;;;;;;;32.75;29.23;;;;;;;;;;3594589;40;20332;-82
2021/07/25 01:13:25;;;;;;;41.92;33.72;;;;;;;;;;3603209;40;20214;-82
2021/07/25 01:15:54;;;;;;;43.63;37.42;;;;;;;;;;3589645;39;20207;-82
2021/07/25 01:18:23;;;;;;;38.13;34.10;;;;;;;;;;3613348;39;20710;-83
2021/07/25 01:20:54;;;;;;;47.78;36.83;;;;;;;;;;3613239;39;20225;-84
2021/07/25 01:23:22;;;;;;;48.30;41.05;;;;;;;;;;3613367;39;20290;-80
2021/07/25 01:25:52;;;;;;;44.70;39.88;;;;;;;;;;3604651;39;20792;-82
2021/07/25 01:28:21;;;;;;;45.40;40.10;;;;;;;;;;3613258;39;20229;-82
2021/07/25 01:30:52;;;;;;;47.60;41.75;;;;;;;;;;3613215;39;20246;-81
2021/07/25 01:33:21;;;;;;;46.65;40.92;;;;;;;;;;3613222;39;20242;-81
2021/07/25 01:35:49;;;;;;;46.08;40.38;;;;;;;;;;3613262;39;20262;-82
2021/07/25 01:38:18;;;;;;;44.03;39.28;;;;;;;;;;3604399;39;20234;-83
2021/07/25 01:41:00;;;;;;;45.90;40.95;;;;;;;;;;3604372;39;20238;-81
2021/07/25 01:43:27;;;;;;;40.88;36.47;;;;;;;;;;3604448;39;20241;-81
2021/07/25 01:45:55;;;;;;;42.20;37.78;;;;;;;;;;3613241;39;20230;-81
2021/07/25 01:48:22;;;;;;;42.08;37.67;;;;;;;;;;3613040;39;20226;-82
2021/07/25 01:50:49;;;;;;;39.13;34.97;;;;;;;;;;3613131;39;20808;-81
2021/07/25 01:53:18;;;;;;;45.58;40.50;;;;;;;;;;3604416;39;20232;-83
2021/07/25 01:55:46;;;;;;;43.75;39.08;;;;;;;;;;3604371;39;20229;-82
2021/07/25 01:58:13;;;;;;;41.17;36.97;;;;;;;;;;3604131;39;20245;-82
2021/07/25 02:00:41;;;;;;;47.42;38.33;;;;;;;;;;3613088;39;20307;-82
2021/07/25 02:03:08;;;;;;;48.67;40.38;;;;;;;;;;3612325;39;20229;-83
2021/07/25 02:05:36;;;;;;;50.78;41.55;;;;;;;;;;3604416;39;20735;-83
2021/07/25 02:08:04;;;;;;;45.75;40.75;;;;;;;;;;3604344;39;20789;-86
2021/07/25 02:10:32;;;;;;;46.63;38.80;;;;;;;;;;3613061;39;20245;-81
2021/07/25 02:13:00;;;;;;;47.47;42.58;;;;;;;;;;3612992;39;20249;-81
2021/07/25 02:15:27;;;;;;;49.60;43.65;;;;;;;;;;3612510;39;20261;-83
2021/07/25 02:17:55;;;;;;;44.92;39.95;;;;;;;;;;3612994;39;21135;-80
2021/07/25 02:20:22;;;;;;;50.15;44.67;;;;;;;;;;3611324;39;20241;-82
2021/07/25 02:22:50;;;;;;;57.03;45.45;;;;;;;;;;3612991;39;20217;-82
2021/07/25 02:25:17;;;;;;;52.03;44.10;;;;;;;;;;3612422;39;20242;-82
2021/07/25 02:27:45;;;;;;;45.88;40.97;;;;;;;;;;3612660;39;20225;-80
2021/07/25 02:30:13;;;;;;;48.97;43.53;;;;;;;;;;3604129;39;20234;-82
2021/07/25 02:32:40;;;;;;;46.55;41.33;;;;;;;;;;3612763;39;20221;-85
2021/07/25 02:35:08;;;;;;;50.58;41.97;;;;;;;;;;3604160;39;20291;-81
2021/07/25 02:37:35;;;;;;;47.80;41.28;;;;;;;;;;3604147;39;20272;-83
2021/07/25 02:40:03;;;;;;;47.20;42.10;;;;;;;;;;3595570;39;20249;-81
2021/07/25 02:42:30;;;;;;;48.33;43.17;;;;;;;;;;3612853;39;20244;-81
2021/07/25 02:44:59;;;;;;;50.75;41.15;;;;;;;;;;3612879;39;20234;-82
2021/07/25 02:47:26;;;;;;;53.28;42.53;;;;;;;;;;3602895;39;20221;-84
2021/07/25 02:49:54;;;;;;;47.38;42.42;;;;;;;;;;3611759;39;20225;-83
2021/07/25 02:52:21;;;;;;;46.00;40.08;;;;;;;;;;3612592;39;20295;-81
2021/07/25 02:54:49;;;;;;;48.85;41.08;;;;;;;;;;3612645;39;20245;-82
2021/07/25 02:57:16;;;;;;;47.20;40.72;;;;;;;;;;3612652;39;20232;-81
2021/07/25 02:59:44;;;;;;;43.20;38.58;;;;;;;;;;3612605;39;20221;-81
2021/07/25 03:02:12;;;;;;;42.42;35.88;;;;;;;;;;3604157;39;20234;-85
2021/07/25 03:04:41;;;;;;;41.83;37.65;;;;;;;;;;3612694;39;20225;-82
2021/07/25 03:07:09;;;;;;;41.42;37.08;;;;;;;;;;3609479;39;20272;-91
2021/07/25 03:09:36;;;;;;;43.65;37.88;;;;;;;;;;3602018;40;20265;-81
2021/07/25 03:12:04;;;;;;;36.55;32.00;;;;;;;;;;3593895;40;20238;-83
2021/07/25 03:14:31;;;;;;;37.50;33.53;;;;;;;;;;3601848;40;20307;-83
2021/07/25 03:16:58;;;;;;;36.80;32.97;;;;;;;;;;3602250;40;20226;-82
2021/07/25 03:19:27;;;;;;;42.20;35.10;;;;;;;;;;3602478;40;20249;-84
2021/07/25 03:21:54;;;;;;;39.28;34.08;;;;;;;;;;3593754;40;20239;-82
2021/07/25 03:24:22;;;;;;;38.30;33.35;;;;;;;;;;3593839;40;20230;-84
2021/07/25 03:26:50;;;;;;;40.80;36.50;;;;;;;;;;3593730;40;20233;-84
2021/07/25 03:29:17;;;;;;;35.85;31.90;;;;;;;;;;3602334;40;20234;-81
2021/07/25 03:31:44;;;;;;;36.88;33.03;;;;;;;;;;3593690;40;20218;-82
2021/07/25 03:34:12;;;;;;;42.85;32.53;;;;;;;;;;3602291;40;20222;-83
2021/07/25 03:36:43;;;;;;;37.28;33.45;;;;;;;;;;3593556;40;20250;-81
2021/07/25 03:39:14;;;;;;;36.10;31.17;;;;;;;;;;3593790;40;20222;-83
2021/07/25 03:41:42;;;;;;;34.90;31.17;;;;;;;;;;3593654;40;20233;-82
2021/07/25 03:44:09;;;;;;;33.72;30.13;;;;;;;;;;3607132;39;20238;-81
2021/07/25 03:46:37;;;;;;;35.03;30.05;;;;;;;;;;3603606;39;20256;-82
2021/07/25 03:49:04;;;;;;;35.70;32.08;;;;;;;;;;3612394;39;20257;-82
2021/07/25 03:51:32;;;;;;;41.67;34.63;;;;;;;;;;3603651;39;20736;-84
2021/07/25 03:54:01;;;;;;;33.78;30.20;;;;;;;;;;3612475;39;20289;-82
2021/07/25 03:56:28;;;;;;;32.83;29.33;;;;;;;;;;3612231;39;20274;-82
2021/07/25 03:58:55;;;;;;;38.58;31.40;;;;;;;;;;3612280;39;20314;-82
2021/07/25 04:01:23;;;;;;;37.63;31.05;;;;;;;;;;3611799;39;20234;-80
2021/07/25 04:03:50;;;;;;;34.67;30.85;;;;;;;;;;3612278;39;20244;-85
2021/07/25 04:06:17;;;;;;;35.30;31.60;;;;;;;;;;3612202;39;20245;-82
2021/07/25 04:08:45;;;;;;;35.17;31.55;;;;;;;;;;3612222;39;20234;-81
2021/07/25 04:11:18;;;;;;;47.28;35.75;;;;;;;;;;3612180;39;20233;-82
2021/07/25 04:13:46;;;;;;;34.55;30.20;;;;;;;;;;3611654;39;20246;-81
2021/07/25 04:16:15;;;;;;;35.13;30.48;;;;;;;;;;3612106;39;20245;-83
2021/07/25 04:18:42;;;;;;;37.22;31.38;;;;;;;;;;3595080;39;20229;-84
2021/07/25 04:21:09;;;;;;;31.98;28.73;;;;;;;;;;3612104;39;20238;-82
2021/07/25 04:23:39;;;;;;;32.33;27.58;;;;;;;;;;3612068;39;20248;-83
2021/07/25 04:26:07;;;;;;;31.98;27.52;;;;;;;;;;3604006;39;20232;-81
2021/07/25 04:28:36;;;;;;;36.50;27.65;;;;;;;;;;3613515;39;20236;-84
2021/07/25 04:31:03;;;;;;;35.88;27.63;;;;;;;;;;3605012;39;20819;-85
2021/07/25 04:33:32;;;;;;;33.58;27.58;;;;;;;;;;3613700;39;20779;-82
2021/07/25 04:36:00;;;;;;;38.10;28.48;;;;;;;;;;3613633;39;20241;-82
2021/07/25 04:38:27;;;;;;;31.58;28.23;;;;;;;;;;3604801;39;20249;-82
2021/07/25 04:40:57;;;;;;;40.38;29.33;;;;;;;;;;3613494;39;20237;-81
2021/07/25 04:43:28;;;;;;;38.33;32.47;;;;;;;;;;3611758;39;20870;-82
2021/07/25 04:46:03;;;;;;;33.70;28.70;;;;;;;;;;3603002;40;20242;-82
2021/07/25 04:48:33;;;;;;;38.88;33.88;;;;;;;;;;3603434;40;20782;-83
2021/07/25 04:51:04;;;;;;;39.25;32.20;;;;;;;;;;3603431;40;20265;-83
2021/07/25 04:53:36;;;;;;;40.55;31.50;;;;;;;;;;3594693;40;20235;-81
2021/07/25 04:56:04;;;;;;;33.47;28.50;;;;;;;;;;3603273;40;20673;-83
2021/07/25 04:58:38;;;;;;;33.60;30.00;;;;;;;;;;3594576;40;20238;-82
2021/07/25 05:01:07;;;;;;;37.55;33.45;;;;;;;;;;3603256;40;20242;-84
2021/07/25 05:03:34;;;;;;;39.40;32.10;;;;;;;;;;3594500;40;20238;-80
2021/07/25 05:06:02;;;;;;;34.38;30.42;;;;;;;;;;3603355;40;20245;-83
2021/07/25 05:08:30;;;;;;;33.10;29.17;;;;;;;;;;3594114;40;20234;-83
2021/07/25 05:11:01;;;;;;;36.72;32.30;;;;;;;;;;3594671;40;20815;-82
2021/07/25 05:13:31;;;;;;;38.03;31.52;;;;;;;;;;3594584;40;20238;-83
2021/07/25 05:15:58;;;;;;;35.22;30.20;;;;;;;;;;3594630;40;20816;-82
2021/07/25 05:18:32;;;;;;;34.92;28.52;;;;;;;;;;3602519;40;20222;-82
2021/07/25 05:21:02;;;;;;;40.75;30.67;;;;;;;;;;3603156;40;20836;-82
2021/07/25 05:23:33;;;;;;;32.78;28.73;;;;;;;;;;3603257;40;20820;-84
2021/07/25 05:26:01;;;;;;;31.08;27.88;;;;;;;;;;3603085;40;20234;-87
2021/07/25 05:28:29;;;;;;;32.42;28.55;;;;;;;;;;3603074;40;20230;-83
2021/07/25 05:30:57;;;;;;;31.85;28.55;;;;;;;;;;3603140;40;20246;-82
2021/07/25 05:33:25;;;;;;;33.05;27.27;;;;;;;;;;3602985;40;20239;-85
2021/07/25 05:35:54;;;;;;;34.80;28.88;;;;;;;;;;3603125;40;20930;-83
2021/07/25 05:38:23;;;;;;;34.13;27.95;;;;;;;;;;3602593;40;20237;-81
2021/07/25 05:40:50;;;;;;;33.70;26.48;;;;;;;;;;3603113;40;20245;-83
2021/07/25 05:43:17;;;;;;;34.95;25.55;;;;;;;;;;3603158;40;20215;-84
2021/07/25 05:45:45;;;;;;;29.25;25.45;;;;;;;;;;3602479;40;20676;-83
2021/07/25 05:48:12;;;;;;;28.98;26.08;;;;;;;;;;3602568;40;20732;-82
2021/07/25 05:50:39;;;;;;;26.58;23.85;;;;;;;;;;3602902;40;20258;-83
2021/07/25 05:53:08;;;;;;;27.60;24.80;;;;;;;;;;3594472;40;20814;-83
2021/07/25 05:55:36;;;;;;;26.70;23.85;;;;;;;;;;3602687;40;20250;-85
2021/07/25 05:58:04;;;;;;;25.60;21.33;;;;;;;;;;3602710;40;20260;-86
2021/07/25 06:00:31;;;;;;;28.60;23.20;;;;;;;;;;3603065;40;20738;-86
2021/07/25 06:02:59;;;;;;;27.90;24.38;;;;;;;;;;3602569;40;20798;-83
2021/07/25 06:05:27;;;;;;;29.77;24.65;;;;;;;;;;3602602;40;20764;-83
2021/07/25 06:07:55;;;;;;;32.20;23.23;;;;;;;;;;3602861;40;20234;-83
2021/07/25 06:10:24;;;;;;;27.73;23.65;;;;;;;;;;3603040;40;20242;-82
2021/07/25 06:12:52;;;;;;;30.33;24.38;;;;;;;;;;3594275;40;20234;-81
2021/07/25 06:15:19;;;;;;;30.13;23.13;;;;;;;;;;3602335;40;20250;-81
2021/07/25 06:17:48;;;;;;;25.20;22.67;;;;;;;;;;3602823;40;20218;-81
2021/07/25 06:20:16;;;;;;;27.17;24.35;;;;;;;;;;3594149;40;20234;-81
2021/07/25 06:22:44;;;;;;;23.80;21.45;;;;;;;;;;3602859;40;20241;-81
2021/07/25 06:25:12;;;;;;;23.30;20.98;;;;;;;;;;3602377;40;20242;-82
2021/07/25 06:27:41;;;;;;;28.60;23.02;;;;;;;;;;3608547;39;20234;-82
2021/07/25 06:30:10;;;;;;;23.73;21.25;;;;;;;;;;3604126;39;20245;-80
2021/07/25 06:32:53;;;;;;;24.20;20.92;;;;;;;;;;3603796;39;20307;-80
2021/07/25 06:35:20;;;;;;;22.05;19.70;;;;;;;;;;3611847;39;20249;-82
2021/07/25 06:37:48;;;;;;;21.40;19.20;;;;;;;;;;3612673;39;20229;-84
2021/07/25 06:40:15;;;;;;;21.00;18.10;;;;;;;;;;3612721;39;20242;-81
2021/07/25 06:42:44;;;;;;;21.08;18.80;;;;;;;;;;3612890;39;20226;-84
2021/07/25 06:45:12;;;;;;;20.45;18.38;;;;;;;;;;3612262;39;20241;-80
2021/07/25 06:47:39;;;;;;;23.45;20.75;;;;;;;;;;3612637;39;20234;-81
2021/07/25 06:50:07;;;;;;;25.23;18.75;;;;;;;;;;3612549;39;20233;-81
2021/07/25 06:52:34;;;;;;;19.70;17.45;;;;;;;;;;3612529;39;20240;-83
2021/07/25 06:55:02;;;;;;;21.23;18.20;;;;;;;;;;3612685;39;20233;-80
2021/07/25 06:57:29;;;;;;;20.67;18.70;;;;;;;;;;3612778;39;20226;-81
2021/07/25 06:59:58;;;;;;;22.77;19.13;;;;;;;;;;3612762;39;20794;-80
2021/07/25 07:02:25;;;;;;;22.38;19.80;;;;;;;;;;3612366;39;20234;-85
2021/07/25 07:04:55;;;;;;;20.27;18.08;;;;;;;;;;3612687;39;20252;-80
2021/07/25 07:07:23;;;;;;;19.17;16.70;;;;;;;;;;3603904;39;20258;-80
2021/07/25 07:09:51;;;;;;;19.45;16.25;;;;;;;;;;3612205;39;20781;-81
2021/07/25 07:12:19;;;;;;;16.45;14.88;;;;;;;;;;3612562;39;20210;-83
2021/07/25 07:14:46;;;;;;;19.80;17.98;;;;;;;;;;3612645;39;20250;-83
2021/07/25 07:17:15;;;;;;;17.98;16.30;;;;;;;;;;3612726;39;20690;-82
2021/07/25 07:19:43;;;;;;;21.70;17.02;;;;;;;;;;3604124;39;20225;-84
2021/07/25 07:22:13;;;;;;;24.05;18.55;;;;;;;;;;3609437;39;20226;-83
2021/07/25 07:24:40;;;;;;;16.02;14.60;;;;;;;;;;3607544;39;20821;-86
2021/07/25 07:27:07;;;;;;;18.00;16.10;;;;;;;;;;3607916;39;20222;-79
2021/07/25 07:29:35;;;;;;;20.52;16.92;;;;;;;;;;3606853;39;20249;-78
2021/07/25 07:32:02;;;;;;;17.98;15.93;;;;;;;;;;3606031;39;20223;-79
2021/07/25 07:34:31;;;;;;;16.17;14.48;;;;;;;;;;3606551;39;20853;-79
2021/07/25 07:36:58;;;;;;;18.27;16.60;;;;;;;;;;3607967;39;20229;-79
2021/07/25 07:39:25;;;;;;;15.98;14.48;;;;;;;;;;3606500;39;20292;-79
2021/07/25 07:41:53;;;;;;;16.30;14.50;;;;;;;;;;3606706;39;20261;-78
2021/07/25 07:44:20;;;;;;;15.85;14.20;;;;;;;;;;3589297;39;20242;-79
2021/07/25 07:46:47;;;;;;;17.30;15.50;;;;;;;;;;3604878;39;20210;-79
2021/07/25 07:49:15;;;;;;;15.98;13.95;;;;;;;;;;3597554;40;20245;-79
2021/07/25 07:51:43;;;;;;;15.98;14.38;;;;;;;;;;3609833;39;20773;-79
2021/07/25 07:54:11;;;;;;;15.90;13.77;;;;;;;;;;3595793;40;20242;-78
2021/07/25 07:56:38;;;;;;;16.40;14.90;;;;;;;;;;3601796;40;20242;-79
2021/07/25 07:59:05;;;;;;;15.30;13.52;;;;;;;;;;3602130;40;20231;-82
2021/07/25 08:01:33;;;;;;;16.83;15.07;;;;;;;;;;3602948;39;20237;-79
2021/07/25 08:04:00;;;;;;;17.15;13.45;;;;;;;;;;3607983;39;20241;-79
2021/07/25 08:06:27;;;;;;;16.40;14.27;;;;;;;;;;3613639;39;20210;-79
2021/07/25 08:08:56;;;;;;;16.05;14.35;;;;;;;;;;3611133;39;20241;-79
2021/07/25 08:11:23;;;;;;;14.48;13.10;;;;;;;;;;3610199;39;20245;-79
2021/07/25 08:13:51;;;;;;;13.23;11.98;;;;;;;;;;3611804;39;20232;-79
2021/07/25 08:16:18;;;;;;;16.10;14.25;;;;;;;;;;3613858;39;20233;-81
2021/07/25 08:18:45;;;;;;;14.50;13.02;;;;;;;;;;3605069;39;20232;-79
2021/07/25 08:21:13;;;;;;;18.05;13.30;;;;;;;;;;3613636;39;20234;-78
2021/07/25 08:23:40;;;;;;;15.38;13.82;;;;;;;;;;3613824;39;20249;-82
2021/07/25 08:26:09;;;;;;;14.05;12.77;;;;;;;;;;3604795;39;20210;-78
2021/07/25 08:28:36;;;;;;;15.30;12.10;;;;;;;;;;3613688;39;20238;-78
2021/07/25 08:31:09;;;;;;;12.68;11.43;;;;;;;;;;3613688;39;20291;-78
2021/07/25 08:33:39;;;;;;;14.52;12.80;;;;;;;;;;3604837;40;20258;-79
2021/07/25 08:36:06;;;;;;;12.15;11.05;;;;;;;;;;3613349;39;20253;-78
2021/07/25 08:38:37;;;;;;;15.65;13.95;;;;;;;;;;3607293;39;20230;-79
2021/07/25 08:41:14;;;;;;;14.10;12.65;;;;;;;;;;3609077;39;20752;-80
2021/07/25 08:43:43;;;;;;;14.55;13.10;;;;;;;;;;3606171;39;20222;-79
2021/07/25 08:46:15;;;;;;;12.82;11.55;;;;;;;;;;3603274;40;20226;-79
2021/07/25 08:48:47;;;;;;;11.35;10.27;;;;;;;;;;3603299;40;20226;-79
2021/07/25 08:51:22;;;;;;;12.82;11.50;;;;;;;;;;3603571;40;20218;-81
2021/07/25 08:53:59;;;;;;;12.82;11.60;;;;;;;;;;3603435;40;20233;-79
2021/07/25 08:56:30;;;;;;;12.60;11.38;;;;;;;;;;3603627;39;20291;-79
2021/07/25 08:59:01;;;;;;;11.23;10.20;;;;;;;;;;3613652;39;20233;-79
2021/07/25 09:01:33;;;;;;;11.70;10.70;;;;;;;;;;3613715;39;20229;-78
2021/07/25 09:04:02;;;;;;;12.90;11.57;;;;;;;;;;3613494;39;20244;-79
2021/07/25 09:06:33;;;;;;;12.52;11.35;;;;;;;;;;3613394;39;20239;-79
2021/07/25 09:09:01;;;;;;;12.05;10.85;;;;;;;;;;3613363;39;20246;-81
2021/07/25 09:11:30;;;;;;;12.65;10.52;;;;;;;;;;3609777;39;20242;-80
2021/07/25 09:13:58;;;;;;;11.30;10.25;;;;;;;;;;3612932;39;20225;-81
2021/07/25 09:16:29;;;;;;;12.25;10.93;;;;;;;;;;3604470;39;20241;-79
2021/07/25 09:18:58;;;;;;;11.20;10.30;;;;;;;;;;3613166;39;20257;-84
2021/07/25 09:21:38;;;;;;;12.85;11.48;;;;;;;;;;3613226;39;20262;-78
2021/07/25 09:24:15;;;;;;;12.50;11.23;;;;;;;;;;3611969;39;20245;-78
2021/07/25 09:26:53;;;;;;;10.98;9.88;;;;;;;;;;3613166;39;20238;-78
2021/07/25 09:29:27;;;;;;;15.07;10.98;;;;;;;;;;3613264;39;20241;-78
2021/07/25 09:32:15;;;;;;;12.43;11.23;;;;;;;;;;3613293;39;20287;-78
2021/07/25 09:34:48;;;;;;;15.52;11.50;;;;;;;;;;3610035;39;20258;-77
2021/07/25 09:37:19;;;;;;;13.25;11.85;;;;;;;;;;3608181;39;20226;-77
2021/07/25 09:39:47;;;;;;;13.73;11.55;;;;;;;;;;3612963;39;20254;-79
2021/07/25 09:42:16;;;;;;;11.80;10.65;;;;;;;;;;3607330;39;20238;-78
2021/07/25 09:44:48;;;;;;;11.95;10.30;;;;;;;;;;3604535;39;20242;-78
2021/07/25 09:47:26;;;;;;;11.50;10.38;;;;;;;;;;3612554;39;20242;-78
2021/07/25 09:49:53;;;;;;;11.90;10.82;;;;;;;;;;3613064;39;20248;-79
2021/07/25 09:52:27;;;;;;;13.40;12.00;;;;;;;;;;3612675;39;20222;-78
2021/07/25 09:54:57;;;;;;;13.77;11.35;;;;;;;;;;3603785;39;20237;-78
2021/07/25 09:57:27;;;;;;;10.13;9.18;;;;;;;;;;3604400;39;20266;-78
2021/07/25 09:59:55;;;;;;;11.55;10.35;;;;;;;;;;3612363;39;20302;-78
2021/07/25 10:02:32;;;;;;;10.48;9.57;;;;;;;;;;3612982;39;20250;-78
2021/07/25 10:05:06;;;;;;;11.38;10.25;;;;;;;;;;3613010;39;20261;-78
2021/07/25 10:07:35;;;;;;;11.13;10.07;;;;;;;;;;3612772;39;20297;-78
2021/07/25 10:10:02;;;;;;;11.82;10.30;;;;;;;;;;3612849;39;20237;-78
2021/07/25 10:12:33;;;;;;;10.32;9.32;;;;;;;;;;3613044;39;20234;-78
2021/07/25 10:15:02;;;;;;;11.98;10.57;;;;;;;;;;3613017;39;20235;-77
2021/07/25 10:17:33;;;;;;;11.35;9.13;;;;;;;;;;3608185;39;20233;-77
2021/07/25 10:20:01;;;;;;;9.27;8.30;;;;;;;;;;3623259;39;20264;-78
2021/07/25 10:22:29;;;;;;;12.05;10.70;;;;;;;;;;3621432;39;20244;-78
2021/07/25 10:24:58;;;;;;;11.23;10.00;;;;;;;;;;3615953;39;20236;-80
2021/07/25 10:27:26;;;;;;;12.25;11.07;;;;;;;;;;3612482;39;20647;-81
2021/07/25 10:29:55;;;;;;;12.98;9.85;;;;;;;;;;3609347;39;20952;-84
2021/07/25 10:32:23;;;;;;;10.25;9.25;;;;;;;;;;3608903;39;20278;-81
2021/07/25 10:34:52;;;;;;;10.82;9.82;;;;;;;;;;3613371;39;20255;-83
2021/07/25 10:37:20;;;;;;;10.40;9.50;;;;;;;;;;3622905;39;20680;-82
2021/07/25 10:39:50;;;;;;;10.77;9.77;;;;;;;;;;3620239;39;20245;-81
2021/07/25 10:42:21;;;;;;;10.35;9.35;;;;;;;;;;3612411;39;20234;-82
2021/07/25 10:44:49;;;;;;;9.13;8.18;;;;;;;;;;3603790;39;20238;-82
2021/07/25 10:47:28;;;;;;;9.88;8.98;;;;;;;;;;3612384;39;20229;-86
2021/07/25 10:50:02;;;;;;;9.18;8.35;;;;;;;;;;3612200;39;20281;-82
2021/07/25 10:52:49;;;;;;;8.85;7.95;;;;;;;;;;3612735;39;20804;-80
2021/07/25 10:55:32;;;;;;;9.98;8.45;;;;;;;;;;3612586;39;20258;-79
2021/07/25 10:58:02;;;;;;;11.27;10.20;;;;;;;;;;3612483;39;20295;-80
2021/07/25 11:00:39;;;;;;;8.85;8.02;;;;;;;;;;3612595;39;20231;-79
2021/07/25 11:03:08;;;;;;;9.30;8.40;;;;;;;;;;3612682;39;20677;-78
2021/07/25 11:05:59;;;;;;;10.10;9.00;;;;;;;;;;3603938;39;20660;-81
2021/07/25 11:08:32;;;;;;;9.02;8.10;;;;;;;;;;3608872;39;20250;-80
2021/07/25 11:11:00;;;;;;;10.15;9.15;;;;;;;;;;3593897;40;20786;-81
2021/07/25 11:13:39;;;;;;;8.80;8.00;;;;;;;;;;3602461;40;20246;-79
2021/07/25 11:16:21;;;;;;;9.48;8.55;;;;;;;;;;3602217;40;20230;-80
2021/07/25 11:18:50;;;;;;;9.18;8.27;;;;;;;;;;3602035;40;20246;-80
2021/07/25 11:21:31;;;;;;;10.55;9.45;;;;;;;;;;3603056;39;20287;-86
2021/07/25 11:23:58;;;;;;;10.85;8.00;;;;;;;;;;3612447;39;20224;-80
2021/07/25 11:26:43;;;;;;;11.18;10.27;;;;;;;;;;3603680;39;20225;-80
2021/07/25 11:29:12;;;;;;;9.27;8.45;;;;;;;;;;3613705;39;20256;-80
2021/07/25 11:31:40;;;;;;;10.27;9.38;;;;;;;;;;3613394;39;20226;-82
2021/07/25 11:34:10;;;;;;;10.10;9.23;;;;;;;;;;3600704;39;20234;-80
2021/07/25 11:36:37;;;;;;;11.32;10.30;;;;;;;;;;3609073;39;20237;-82
2021/07/25 11:39:06;;;;;;;9.77;8.88;;;;;;;;;;3608565;39;20294;-81
2021/07/25 11:41:34;;;;;;;10.82;9.55;;;;;;;;;;3612056;39;20228;-79
2021/07/25 11:44:02;;;;;;;12.60;9.23;;;;;;;;;;3612122;39;20236;-82
2021/07/25 11:46:36;;;;;;;9.23;8.32;;;;;;;;;;3612068;39;20786;-81
2021/07/25 11:49:21;;;;;;;9.43;8.52;;;;;;;;;;3611948;39;20253;-83
2021/07/25 11:51:54;;;;;;;9.88;8.88;;;;;;;;;;3602269;40;20226;-82
2021/07/25 11:54:23;;;;;;;13.00;8.98;;;;;;;;;;3602330;40;20758;-84
2021/07/25 11:56:57;;;;;;;10.20;9.38;;;;;;;;;;3593534;40;20226;-83
2021/07/25 11:59:25;;;;;;;10.38;9.38;;;;;;;;;;3602040;40;20257;-80
2021/07/25 12:01:52;;;;;;;10.55;9.48;;;;;;;;;;3601957;40;20238;-82
2021/07/25 12:04:21;;;;;;;13.88;8.63;;;;;;;;;;3601784;40;20812;-81
2021/07/25 12:06:57;;;;;;;9.98;9.07;;;;;;;;;;3607563;39;20783;-82
2021/07/25 12:09:26;;;;;;;9.45;8.50;;;;;;;;;;3618373;39;20224;-81
2021/07/25 12:14:47;;;;;;;8.73;8.02;;;;;;;;;;3606634;39;20219;-82
2021/07/25 12:17:15;;;;;;;6.78;6.18;;;;;;;;;;3602745;39;20221;-82
2021/07/25 12:19:43;;;;;;;10.48;6.80;;;;;;;;;;3606515;39;20246;-85
2021/07/25 12:22:12;;;;;;;7.07;6.47;;;;;;;;;;3610934;39;20238;-81
2021/07/25 12:24:42;;;;;;;8.68;7.70;;;;;;;;;;3612877;39;20237;-82
2021/07/25 12:27:25;;;;;;;7.57;6.88;;;;;;;;;;3611903;39;20242;-83
2021/07/25 12:29:52;;;;;;;7.07;6.10;;;;;;;;;;3603282;39;20242;-83
2021/07/25 12:32:21;;;;;;;6.15;5.65;;;;;;;;;;3611970;39;20704;-82
2021/07/25 12:34:48;;;;;;;7.38;6.65;;;;;;;;;;3612035;39;20210;-85
2021/07/25 12:37:26;;;;;;;6.72;6.03;;;;;;;;;;3611737;39;20237;-82
2021/07/25 12:40:11;;;;;;;7.30;6.65;;;;;;;;;;3601903;40;20242;-82
2021/07/25 12:42:40;;;;;;;7.03;6.40;;;;;;;;;;3601771;40;20844;-86
2021/07/25 12:45:26;;;;;;;6.70;5.97;;;;;;;;;;3593075;40;20214;-82
2021/07/25 12:48:12;;;;;;;10.02;9.05;;;;;;;;;;3602631;40;20271;-84
2021/07/25 12:50:44;;;;;;;11.05;9.95;;;;;;;;;;3594609;40;20257;-83
2021/07/25 12:53:21;;;;;;;7.00;6.28;;;;;;;;;;3602919;40;20238;-83
2021/07/25 12:55:51;;;;;;;7.93;5.72;;;;;;;;;;3603236;40;20800;-84
2021/07/25 12:58:19;;;;;;;5.80;5.30;;;;;;;;;;3603184;40;20230;-83
2021/07/25 13:01:04;;;;;;;5.38;4.85;;;;;;;;;;3603196;40;20238;-84
2021/07/25 13:03:52;;;;;;;6.63;5.60;;;;;;;;;;3603167;40;20242;-84
2021/07/25 13:06:21;;;;;;;5.50;4.90;;;;;;;;;;3608568;39;20249;-84
2021/07/25 13:08:49;;;;;;;5.18;4.70;;;;;;;;;;3604693;39;20262;-83
2021/07/25 13:11:18;;;;;;;4.93;4.53;;;;;;;;;;3613025;39;20299;-83
2021/07/25 13:13:47;;;;;;;7.93;5.50;;;;;;;;;;3611687;39;20235;-85
2021/07/25 13:16:16;;;;;;;5.13;4.72;;;;;;;;;;3611417;39;20294;-86
2021/07/25 13:18:44;;;;;;;7.25;6.35;;;;;;;;;;3613080;39;20206;-83
2021/07/25 13:21:12;;;;;;;6.82;6.30;;;;;;;;;;3612821;39;20245;-86
2021/07/25 13:23:39;;;;;;;6.82;6.05;;;;;;;;;;3604482;39;20237;-84
2021/07/25 13:26:07;;;;;;;7.22;6.45;;;;;;;;;;3604569;39;20206;-83
2021/07/25 13:28:36;;;;;;;5.85;5.40;;;;;;;;;;3613217;39;20291;-83
2021/07/25 13:31:04;;;;;;;7.45;6.70;;;;;;;;;;3612849;39;20253;-84
2021/07/25 13:33:33;;;;;;;6.80;6.00;;;;;;;;;;3612983;39;20238;-86
2021/07/25 13:36:01;;;;;;;6.88;5.32;;;;;;;;;;3612084;39;20283;-84
2021/07/25 13:38:29;;;;;;;5.68;5.28;;;;;;;;;;3596094;39;20242;-83
2021/07/25 13:40:56;;;;;;;5.70;5.30;;;;;;;;;;3604578;39;20237;-83
2021/07/25 13:43:24;;;;;;;6.25;5.75;;;;;;;;;;3613238;39;20265;-86
2021/07/25 13:45:58;;;;;;;6.25;5.53;;;;;;;;;;3613185;39;20244;-82
2021/07/25 13:48:27;;;;;;;6.05;5.53;;;;;;;;;;3608742;39;20234;-86
2021/07/25 13:50:57;;;;;;;5.63;5.13;;;;;;;;;;3605834;39;20235;-83
2021/07/25 13:53:27;;;;;;;5.75;5.25;;;;;;;;;;3605727;39;20240;-85
2021/07/25 13:55:55;;;;;;;6.13;5.53;;;;;;;;;;3613041;39;20234;-84
2021/07/25 13:58:22;;;;;;;5.88;5.10;;;;;;;;;;3603623;39;20230;-83
2021/07/25 14:00:50;;;;;;;5.72;5.20;;;;;;;;;;3613058;39;20273;-85
2021/07/25 14:03:19;;;;;;;6.60;5.90;;;;;;;;;;3607304;39;20319;-84
2021/07/25 14:05:46;;;;;;;6.63;6.03;;;;;;;;;;3594329;40;20227;-84
2021/07/25 14:08:14;;;;;;;6.97;6.32;;;;;;;;;;3602534;40;20219;-85
2021/07/25 14:10:41;;;;;;;6.15;5.47;;;;;;;;;;3600074;39;20253;-82
2021/07/25 14:13:09;;;;;;;6.47;5.97;;;;;;;;;;3612958;39;20222;-84
2021/07/25 14:15:37;;;;;;;6.75;6.15;;;;;;;;;;3612729;39;20236;-85
2021/07/25 14:18:05;;;;;;;6.70;6.10;;;;;;;;;;3609352;39;20221;-80
2021/07/25 14:20:35;;;;;;;6.95;6.25;;;;;;;;;;3622917;39;20256;-82
2021/07/25 14:23:03;;;;;;;6.82;6.13;;;;;;;;;;3622934;39;20233;-81
2021/07/25 14:25:30;;;;;;;7.22;6.63;;;;;;;;;;3622689;39;20236;-84
2021/07/25 14:28:24;;;;;;;7.38;6.68;;;;;;;;;;3653138;22;20238;-83
2021/07/25 14:30:53;;;;;;;8.43;6.85;;;;;;;;;;3601934;39;20231;-84
2021/07/25 14:33:21;;;;;;;7.10;6.18;;;;;;;;;;3602778;39;20246;-78
2021/07/25 14:35:49;;;;;;;7.05;6.20;;;;;;;;;;3602692;40;20234;-85
2021/07/25 14:38:17;;;;;;;6.65;6.05;;;;;;;;;;3602571;39;20297;-83
2021/07/25 14:40:45;;;;;;;7.15;6.47;;;;;;;;;;3602429;39;20265;-80